CHH770 ENGM-ZBAA
Flight info
| Callsign | CHH770 |
|---|---|
| Flight time | N/A |
| Altitude | 37000 |
| Route | RIBBE DCT EGAGO DCT TOGMI DCT KOKAT/K0850F370 DCT PINEG/K0856F390 DCT ERUSA M59 NWK T631 SOREB A307 RUPES R104 GINOM/K0839S1190 Y655 INTIK A575 LHT B458 BIKUT W69 GUVBA GUVBA4E |
| Aircraft | A333/H-SDE1E2E3FGHIJ3J4J5M1P2RWYZ/LB1D1 |
Departure
| Time | 2026-05-05 11:41 |
|---|---|
| Airport | Oslo-Gardermoen International Airport (ENGM) |
Arrival
| Time | N/A |
|---|---|
| Airport | Beijing Capital International Airport (ZBAA) |
| Time | Latitude | Longitude | Altitude | Speed | Heading |
|---|---|---|---|---|---|
| 2026-05-05 10:57 | 60.19374 | 11.10932 | 682 ft | 0 kts | 196° |
| 2026-05-05 10:58 | 60.19376 | 11.10933 | 682 ft | 0 kts | 196° |
| 2026-05-05 11:30 | 60.19379 | 11.10935 | 682 ft | 3 kts | 196° |
| 2026-05-05 11:31 | 60.19404 | 11.10950 | 686 ft | 4 kts | 196° |
| 2026-05-05 11:31 | 60.19430 | 11.10964 | 681 ft | 3 kts | 196° |
| 2026-05-05 11:31 | 60.19448 | 11.10972 | 681 ft | 4 kts | 152° |
| 2026-05-05 11:31 | 60.19460 | 11.10944 | 679 ft | 2 kts | 106° |
| 2026-05-05 11:32 | 60.19456 | 11.10976 | 679 ft | 4 kts | 106° |
| 2026-05-05 11:32 | 60.19448 | 11.11028 | 680 ft | 4 kts | 106° |
| 2026-05-05 11:32 | 60.19441 | 11.11080 | 685 ft | 4 kts | 106° |
| 2026-05-05 11:32 | 60.19436 | 11.11116 | 682 ft | 1 kts | 106° |
| 2026-05-05 11:34 | 60.19433 | 11.11135 | 680 ft | 7 kts | 106° |
| 2026-05-05 11:35 | 60.19407 | 11.11239 | 680 ft | 8 kts | 139° |
| 2026-05-05 11:35 | 60.19365 | 11.11244 | 682 ft | 6 kts | 190° |
| 2026-05-05 11:35 | 60.19324 | 11.11225 | 682 ft | 8 kts | 195° |
| 2026-05-05 11:35 | 60.19262 | 11.11191 | 687 ft | 10 kts | 195° |
| 2026-05-05 11:36 | 60.19197 | 11.11154 | 682 ft | 10 kts | 195° |
| 2026-05-05 11:36 | 60.19128 | 11.11114 | 683 ft | 11 kts | 195° |
| 2026-05-05 11:36 | 60.19049 | 11.11069 | 680 ft | 12 kts | 196° |
| 2026-05-05 11:36 | 60.18963 | 11.11019 | 681 ft | 13 kts | 197° |
| 2026-05-05 11:37 | 60.18875 | 11.10967 | 682 ft | 14 kts | 197° |
| 2026-05-05 11:37 | 60.18770 | 11.10904 | 682 ft | 17 kts | 196° |
| 2026-05-05 11:37 | 60.18658 | 11.10838 | 683 ft | 17 kts | 196° |
| 2026-05-05 11:37 | 60.18535 | 11.10771 | 680 ft | 19 kts | 195° |
| 2026-05-05 11:38 | 60.18411 | 11.10698 | 684 ft | 19 kts | 197° |
| 2026-05-05 11:38 | 60.18284 | 11.10626 | 680 ft | 19 kts | 196° |
| 2026-05-05 11:38 | 60.18155 | 11.10552 | 680 ft | 19 kts | 196° |
| 2026-05-05 11:38 | 60.18024 | 11.10476 | 681 ft | 20 kts | 196° |
| 2026-05-05 11:39 | 60.17891 | 11.10398 | 677 ft | 20 kts | 197° |
| 2026-05-05 11:39 | 60.17758 | 11.10321 | 676 ft | 20 kts | 196° |
| 2026-05-05 11:39 | 60.17667 | 11.10323 | 675 ft | 13 kts | 144° |
| 2026-05-05 11:39 | 60.17635 | 11.10486 | 676 ft | 12 kts | 108° |
| 2026-05-05 11:40 | 60.17612 | 11.10624 | 679 ft | 9 kts | 108° |
| 2026-05-05 11:40 | 60.17594 | 11.10741 | 678 ft | 8 kts | 97° |
| 2026-05-05 11:40 | 60.17616 | 11.10788 | 676 ft | 7 kts | 34° |
| 2026-05-05 11:40 | 60.17698 | 11.10845 | 678 ft | 24 kts | 16° |
| 2026-05-05 11:41 | 60.18056 | 11.11051 | 680 ft | 83 kts | 15° |
| 2026-05-05 11:41 | 60.18799 | 11.11485 | 680 ft | 138 kts | 16° |
| 2026-05-05 11:41 | 60.19859 | 11.12126 | 899 ft | 168 kts | 15° |
| 2026-05-05 11:41 | 60.20981 | 11.12886 | 1722 ft | 167 kts | 21° |
| 2026-05-05 11:42 | 60.21812 | 11.14435 | 2380 ft | 171 kts | 63° |
| 2026-05-05 11:42 | 60.22008 | 11.16789 | 2862 ft | 173 kts | 86° |
| 2026-05-05 11:42 | 60.22037 | 11.19234 | 3282 ft | 177 kts | 87° |
| 2026-05-05 11:42 | 60.22104 | 11.21701 | 3703 ft | 178 kts | 84° |
| 2026-05-05 11:43 | 60.22222 | 11.24262 | 3980 ft | 191 kts | 82° |
| 2026-05-05 11:43 | 60.22392 | 11.27038 | 4237 ft | 209 kts | 80° |
| 2026-05-05 11:43 | 60.22599 | 11.30046 | 4439 ft | 228 kts | 80° |
| 2026-05-05 11:43 | 60.22918 | 11.33309 | 4673 ft | 246 kts | 75° |
| 2026-05-05 11:44 | 60.23338 | 11.36712 | 5085 ft | 257 kts | 73° |
| 2026-05-05 11:44 | 60.23791 | 11.40280 | 5444 ft | 269 kts | 74° |
| 2026-05-05 11:44 | 60.24258 | 11.43966 | 5921 ft | 275 kts | 74° |
| 2026-05-05 11:44 | 60.24747 | 11.47731 | 6401 ft | 279 kts | 71° |
| 2026-05-05 11:45 | 60.25604 | 11.51203 | 6930 ft | 277 kts | 48° |
| 2026-05-05 11:45 | 60.27096 | 11.53539 | 7483 ft | 272 kts | 19° |
| 2026-05-05 11:45 | 60.28909 | 11.54573 | 8058 ft | 271 kts | 8° |
| 2026-05-05 11:45 | 60.30775 | 11.55233 | 8618 ft | 273 kts | 6° |
| 2026-05-05 11:46 | 60.32659 | 11.55855 | 9180 ft | 277 kts | 6° |
| 2026-05-05 11:46 | 60.34568 | 11.56500 | 9742 ft | 279 kts | 6° |
| 2026-05-05 11:46 | 60.36502 | 11.57168 | 10142 ft | 287 kts | 6° |
| 2026-05-05 11:46 | 60.38483 | 11.57861 | 10351 ft | 300 kts | 7° |
| 2026-05-05 11:47 | 60.40584 | 11.58606 | 10561 ft | 313 kts | 7° |
| 2026-05-05 11:47 | 60.42770 | 11.59386 | 10735 ft | 326 kts | 7° |
| 2026-05-05 11:47 | 60.45043 | 11.60202 | 11048 ft | 334 kts | 8° |
| 2026-05-05 11:47 | 60.47343 | 11.61035 | 11440 ft | 338 kts | 7° |
| 2026-05-05 11:48 | 60.52006 | 11.62834 | 12396 ft | 344 kts | 10° |
| 2026-05-05 11:48 | 60.54349 | 11.63917 | 12908 ft | 346 kts | 11° |
| 2026-05-05 11:48 | 60.56700 | 11.65029 | 13388 ft | 348 kts | 11° |
| 2026-05-05 11:49 | 60.59070 | 11.66172 | 13854 ft | 351 kts | 11° |
| 2026-05-05 11:49 | 60.61436 | 11.67331 | 14247 ft | 354 kts | 11° |
| 2026-05-05 11:49 | 60.63853 | 11.68523 | 14637 ft | 357 kts | 11° |
| 2026-05-05 11:49 | 60.66281 | 11.69725 | 15030 ft | 360 kts | 10° |
| 2026-05-05 11:50 | 60.68728 | 11.70940 | 15426 ft | 363 kts | 10° |
| 2026-05-05 11:50 | 60.71191 | 11.72166 | 15790 ft | 366 kts | 10° |
| 2026-05-05 11:50 | 60.73676 | 11.73403 | 16183 ft | 369 kts | 9° |
| 2026-05-05 11:50 | 60.76186 | 11.74653 | 16569 ft | 372 kts | 9° |
| 2026-05-05 11:51 | 60.78712 | 11.75916 | 16936 ft | 375 kts | 9° |
| 2026-05-05 11:51 | 60.81255 | 11.77189 | 17325 ft | 378 kts | 8° |
| 2026-05-05 11:51 | 60.83821 | 11.78472 | 17760 ft | 380 kts | 10° |
| 2026-05-05 11:51 | 60.86394 | 11.79765 | 18177 ft | 382 kts | 10° |
| 2026-05-05 11:52 | 60.88985 | 11.81071 | 18493 ft | 384 kts | 9° |
| 2026-05-05 11:52 | 60.91587 | 11.82382 | 18793 ft | 387 kts | 9° |
| 2026-05-05 11:52 | 60.94221 | 11.83710 | 19052 ft | 390 kts | 9° |
| 2026-05-05 11:52 | 60.96863 | 11.85044 | 19320 ft | 393 kts | 9° |
| 2026-05-05 11:53 | 60.99524 | 11.86389 | 19612 ft | 395 kts | 8° |
| 2026-05-05 11:53 | 61.02206 | 11.87747 | 19896 ft | 398 kts | 8° |
| 2026-05-05 11:53 | 61.04902 | 11.89116 | 20176 ft | 401 kts | 8° |
| 2026-05-05 11:53 | 61.07623 | 11.90502 | 20461 ft | 403 kts | 8° |
| 2026-05-05 11:54 | 61.10320 | 11.91876 | 20717 ft | 406 kts | 7° |
| 2026-05-05 11:54 | 61.13105 | 11.93297 | 20982 ft | 409 kts | 7° |
| 2026-05-05 11:54 | 61.15878 | 11.94716 | 21264 ft | 411 kts | 7° |
| 2026-05-05 11:54 | 61.18662 | 11.96144 | 21532 ft | 414 kts | 7° |
| 2026-05-05 11:55 | 61.21456 | 11.97579 | 21797 ft | 416 kts | 7° |
| 2026-05-05 11:55 | 61.24282 | 11.99034 | 22069 ft | 419 kts | 6° |
| 2026-05-05 11:55 | 61.27117 | 12.00495 | 22319 ft | 421 kts | 6° |
| 2026-05-05 11:55 | 61.29967 | 12.01964 | 22598 ft | 424 kts | 6° |
| 2026-05-05 11:56 | 61.32802 | 12.03430 | 22865 ft | 426 kts | 6° |
| 2026-05-05 11:56 | 61.35690 | 12.04925 | 23143 ft | 429 kts | 6° |
| 2026-05-05 11:56 | 61.38589 | 12.06430 | 23408 ft | 431 kts | 6° |
| 2026-05-05 11:56 | 61.41499 | 12.07943 | 23733 ft | 431 kts | 7° |
| 2026-05-05 11:57 | 61.44400 | 12.09456 | 23997 ft | 431 kts | 7° |
| 2026-05-05 11:57 | 61.47325 | 12.10986 | 24170 ft | 433 kts | 7° |
| 2026-05-05 11:57 | 61.50261 | 12.12523 | 24362 ft | 435 kts | 7° |
| 2026-05-05 11:57 | 61.53187 | 12.14058 | 24581 ft | 437 kts | 7° |
| 2026-05-05 11:58 | 61.56160 | 12.15649 | 24742 ft | 441 kts | 9° |
| 2026-05-05 11:58 | 61.59072 | 12.17868 | 24952 ft | 450 kts | 18° |
| 2026-05-05 11:58 | 61.61832 | 12.21121 | 25146 ft | 460 kts | 30° |
| 2026-05-05 11:58 | 61.64295 | 12.25515 | 25324 ft | 470 kts | 43° |
| 2026-05-05 11:59 | 61.66309 | 12.31004 | 25513 ft | 478 kts | 56° |
| 2026-05-05 11:59 | 61.67718 | 12.37332 | 25807 ft | 481 kts | 71° |
| 2026-05-05 11:59 | 61.68472 | 12.44155 | 26209 ft | 478 kts | 82° |
| 2026-05-05 11:59 | 61.68866 | 12.51107 | 26386 ft | 480 kts | 85° |
| 2026-05-05 12:00 | 61.69133 | 12.58153 | 26527 ft | 483 kts | 87° |
| 2026-05-05 12:00 | 61.69342 | 12.65214 | 26693 ft | 485 kts | 88° |
| 2026-05-05 12:00 | 61.69538 | 12.72335 | 26878 ft | 487 kts | 88° |
| 2026-05-05 12:00 | 61.69740 | 12.79474 | 27068 ft | 489 kts | 88° |
| 2026-05-05 12:01 | 61.69956 | 12.86638 | 27264 ft | 491 kts | 87° |
| 2026-05-05 12:01 | 61.70182 | 12.93822 | 27361 ft | 494 kts | 87° |
| 2026-05-05 12:01 | 61.70416 | 13.01084 | 27467 ft | 498 kts | 87° |
| 2026-05-05 12:01 | 61.70652 | 13.08357 | 27656 ft | 500 kts | 87° |
| 2026-05-05 12:02 | 61.70889 | 13.15713 | 27870 ft | 501 kts | 88° |
| 2026-05-05 12:02 | 61.71120 | 13.23029 | 28044 ft | 503 kts | 88° |
| 2026-05-05 12:02 | 61.71351 | 13.30441 | 28241 ft | 505 kts | 88° |
| 2026-05-05 12:02 | 61.71575 | 13.37826 | 28434 ft | 507 kts | 88° |
| 2026-05-05 12:03 | 61.71798 | 13.45279 | 28622 ft | 509 kts | 88° |
| 2026-05-05 12:03 | 61.72016 | 13.52741 | 28801 ft | 511 kts | 88° |
| 2026-05-05 12:03 | 61.72230 | 13.60224 | 28987 ft | 513 kts | 88° |
| 2026-05-05 12:03 | 61.72441 | 13.67743 | 29164 ft | 515 kts | 88° |
| 2026-05-05 12:04 | 61.72649 | 13.75298 | 29353 ft | 516 kts | 88° |
| 2026-05-05 12:04 | 61.72853 | 13.82858 | 29524 ft | 518 kts | 88° |
| 2026-05-05 12:04 | 61.73054 | 13.90474 | 29696 ft | 520 kts | 88° |
| 2026-05-05 12:04 | 61.73252 | 13.98113 | 29874 ft | 522 kts | 88° |
| 2026-05-05 12:05 | 61.73445 | 14.05735 | 30026 ft | 524 kts | 88° |
| 2026-05-05 12:05 | 61.73636 | 14.13462 | 30188 ft | 525 kts | 89° |
| 2026-05-05 12:05 | 61.73822 | 14.21159 | 30359 ft | 526 kts | 89° |
| 2026-05-05 12:05 | 61.74005 | 14.28879 | 30526 ft | 527 kts | 89° |
| 2026-05-05 12:06 | 61.74183 | 14.36615 | 30651 ft | 529 kts | 89° |
| 2026-05-05 12:06 | 61.74361 | 14.44399 | 30625 ft | 535 kts | 89° |
| 2026-05-05 12:06 | 61.74539 | 14.52268 | 30733 ft | 537 kts | 89° |
| 2026-05-05 12:06 | 61.74711 | 14.60139 | 30919 ft | 538 kts | 89° |
| 2026-05-05 12:07 | 61.74873 | 14.67994 | 31322 ft | 533 kts | 89° |
| 2026-05-05 12:07 | 61.75027 | 14.75772 | 31766 ft | 529 kts | 89° |
| 2026-05-05 12:07 | 61.75177 | 14.83526 | 32061 ft | 528 kts | 89° |
| 2026-05-05 12:07 | 61.75321 | 14.91262 | 32321 ft | 529 kts | 89° |
| 2026-05-05 12:08 | 61.75463 | 14.99040 | 32597 ft | 529 kts | 89° |
| 2026-05-05 12:08 | 61.75601 | 15.06785 | 32880 ft | 528 kts | 89° |
| 2026-05-05 12:08 | 61.75735 | 15.14546 | 33094 ft | 529 kts | 90° |
| 2026-05-05 12:08 | 61.75864 | 15.22241 | 33128 ft | 534 kts | 90° |
| 2026-05-05 12:09 | 61.75992 | 15.30191 | 33351 ft | 535 kts | 90° |
| 2026-05-05 12:09 | 61.76115 | 15.38030 | 33713 ft | 533 kts | 90° |
| 2026-05-05 12:09 | 61.76232 | 15.45741 | 34019 ft | 531 kts | 90° |
| 2026-05-05 12:09 | 61.76345 | 15.53530 | 34295 ft | 530 kts | 90° |
| 2026-05-05 12:10 | 61.76454 | 15.61302 | 34554 ft | 529 kts | 90° |
| 2026-05-05 12:10 | 61.76558 | 15.69045 | 34801 ft | 528 kts | 90° |
| 2026-05-05 12:10 | 61.76657 | 15.76786 | 35044 ft | 527 kts | 90° |
| 2026-05-05 12:10 | 61.76751 | 15.84484 | 35275 ft | 527 kts | 90° |
| 2026-05-05 12:11 | 61.76841 | 15.92281 | 35404 ft | 529 kts | 90° |
| 2026-05-05 12:11 | 61.76928 | 16.00074 | 35500 ft | 531 kts | 90° |
| 2026-05-05 12:11 | 61.77010 | 16.07866 | 35705 ft | 531 kts | 90° |
| 2026-05-05 12:11 | 61.77087 | 16.15641 | 35971 ft | 529 kts | 90° |
| 2026-05-05 12:12 | 61.77161 | 16.23391 | 36234 ft | 528 kts | 90° |
| 2026-05-05 12:12 | 61.77230 | 16.31135 | 36480 ft | 527 kts | 90° |
| 2026-05-05 12:12 | 61.77294 | 16.38886 | 36700 ft | 526 kts | 90° |
| 2026-05-05 12:12 | 61.77354 | 16.46600 | 36803 ft | 526 kts | 90° |
| 2026-05-05 12:13 | 61.77460 | 16.62001 | 36782 ft | 524 kts | 90° |
| 2026-05-05 12:13 | 61.77548 | 16.77445 | 36802 ft | 525 kts | 91° |
| 2026-05-05 12:14 | 61.77619 | 16.92862 | 36802 ft | 525 kts | 91° |
| 2026-05-05 12:14 | 61.77673 | 17.08174 | 36800 ft | 524 kts | 91° |
| 2026-05-05 12:15 | 61.77710 | 17.23514 | 36799 ft | 522 kts | 91° |
| 2026-05-05 12:15 | 61.77730 | 17.38859 | 36785 ft | 522 kts | 91° |
| 2026-05-05 12:16 | 61.77733 | 17.54198 | 36791 ft | 521 kts | 91° |
| 2026-05-05 12:16 | 61.77722 | 17.67019 | 36785 ft | 521 kts | 91° |
| 2026-05-05 12:17 | 61.77693 | 17.82312 | 36785 ft | 521 kts | 91° |
| 2026-05-05 12:17 | 61.77648 | 17.97524 | 36779 ft | 521 kts | 92° |
| 2026-05-05 12:18 | 61.77585 | 18.12827 | 36767 ft | 521 kts | 92° |
| 2026-05-05 12:18 | 61.77505 | 18.28136 | 36795 ft | 522 kts | 92° |
| 2026-05-05 12:19 | 61.77408 | 18.43481 | 36784 ft | 522 kts | 92° |
| 2026-05-05 12:19 | 61.77294 | 18.58815 | 36777 ft | 522 kts | 92° |
| 2026-05-05 12:20 | 61.77163 | 18.74159 | 36767 ft | 522 kts | 92° |
| 2026-05-05 12:20 | 61.77015 | 18.89481 | 36772 ft | 522 kts | 93° |
| 2026-05-05 12:21 | 61.76849 | 19.04871 | 36769 ft | 524 kts | 93° |
| 2026-05-05 12:21 | 61.76666 | 19.20281 | 36766 ft | 525 kts | 93° |
| 2026-05-05 12:22 | 61.76466 | 19.35638 | 36805 ft | 524 kts | 93° |
| 2026-05-05 12:22 | 61.76364 | 19.51047 | 36765 ft | 524 kts | 86° |
| 2026-05-05 12:23 | 61.77660 | 19.66186 | 36768 ft | 524 kts | 77° |
| 2026-05-05 12:23 | 61.79419 | 19.81147 | 36763 ft | 525 kts | 75° |
| 2026-05-05 12:24 | 61.81254 | 19.96096 | 36763 ft | 525 kts | 75° |
| 2026-05-05 12:24 | 61.83051 | 20.11007 | 36765 ft | 525 kts | 76° |
| 2026-05-05 12:25 | 61.84818 | 20.26008 | 36760 ft | 525 kts | 76° |
| 2026-05-05 12:25 | 61.86561 | 20.41042 | 36754 ft | 525 kts | 76° |
| 2026-05-05 12:26 | 61.88285 | 20.56077 | 36755 ft | 525 kts | 76° |
| 2026-05-05 12:26 | 61.89993 | 20.71116 | 36766 ft | 524 kts | 77° |
| 2026-05-05 12:27 | 61.91685 | 20.86176 | 36747 ft | 523 kts | 77° |
| 2026-05-05 12:27 | 61.93357 | 21.01222 | 36749 ft | 524 kts | 77° |
| 2026-05-05 12:28 | 61.95013 | 21.16286 | 36748 ft | 524 kts | 77° |
| 2026-05-05 12:28 | 61.96651 | 21.31348 | 36749 ft | 524 kts | 77° |
| 2026-05-05 12:29 | 61.98271 | 21.46410 | 36742 ft | 523 kts | 77° |
| 2026-05-05 12:29 | 61.99880 | 21.61552 | 36746 ft | 523 kts | 77° |
| 2026-05-05 12:30 | 62.01469 | 21.76667 | 36744 ft | 524 kts | 78° |
| 2026-05-05 12:30 | 62.03041 | 21.91798 | 36734 ft | 523 kts | 78° |
| 2026-05-05 12:31 | 62.04598 | 22.06953 | 36724 ft | 523 kts | 78° |
| 2026-05-05 12:31 | 62.06134 | 22.22091 | 36719 ft | 523 kts | 78° |
| 2026-05-05 12:32 | 62.07654 | 22.37239 | 36711 ft | 523 kts | 78° |
| 2026-05-05 12:32 | 62.09160 | 22.52439 | 36701 ft | 523 kts | 78° |
| 2026-05-05 12:33 | 62.10649 | 22.67637 | 36701 ft | 523 kts | 79° |
| 2026-05-05 12:33 | 62.12110 | 22.82745 | 36690 ft | 523 kts | 79° |
| 2026-05-05 12:34 | 62.13572 | 22.98049 | 36691 ft | 523 kts | 79° |
| 2026-05-05 12:34 | 62.15003 | 23.13209 | 36691 ft | 522 kts | 79° |
| 2026-05-05 12:35 | 62.16422 | 23.28438 | 36685 ft | 522 kts | 79° |
| 2026-05-05 12:35 | 62.17827 | 23.43712 | 36676 ft | 522 kts | 80° |
| 2026-05-05 12:36 | 62.19211 | 23.58964 | 36679 ft | 522 kts | 80° |
| 2026-05-05 12:36 | 62.20578 | 23.74216 | 36659 ft | 522 kts | 80° |
| 2026-05-05 12:37 | 62.21933 | 23.89527 | 36616 ft | 522 kts | 80° |
| 2026-05-05 12:37 | 62.23266 | 24.04811 | 36663 ft | 523 kts | 81° |
| 2026-05-05 12:38 | 62.24588 | 24.20166 | 36692 ft | 523 kts | 81° |
| 2026-05-05 12:38 | 62.25889 | 24.35492 | 36653 ft | 522 kts | 81° |
| 2026-05-05 12:39 | 62.27163 | 24.50710 | 36658 ft | 521 kts | 81° |
| 2026-05-05 12:39 | 62.28429 | 24.66041 | 36655 ft | 521 kts | 81° |
| 2026-05-05 12:40 | 62.29678 | 24.81379 | 36622 ft | 521 kts | 81° |
| 2026-05-05 12:40 | 62.30914 | 24.96792 | 36646 ft | 523 kts | 82° |
| 2026-05-05 12:41 | 62.32131 | 25.12181 | 36641 ft | 523 kts | 82° |
| 2026-05-05 12:41 | 62.33336 | 25.27652 | 36634 ft | 523 kts | 82° |
| 2026-05-05 12:42 | 62.34519 | 25.43072 | 36636 ft | 523 kts | 82° |
| 2026-05-05 12:42 | 62.35686 | 25.58529 | 36634 ft | 523 kts | 82° |
| 2026-05-05 12:43 | 62.36837 | 25.74001 | 36638 ft | 524 kts | 82° |
| 2026-05-05 12:43 | 62.37973 | 25.89527 | 36635 ft | 525 kts | 82° |
| 2026-05-05 12:44 | 62.39094 | 26.05086 | 36634 ft | 525 kts | 82° |
| 2026-05-05 12:44 | 62.40197 | 26.20645 | 36634 ft | 525 kts | 82° |
| 2026-05-05 12:45 | 62.41285 | 26.36246 | 36631 ft | 525 kts | 83° |
| 2026-05-05 12:45 | 62.42353 | 26.51828 | 36633 ft | 525 kts | 83° |
| 2026-05-05 12:46 | 62.43402 | 26.67402 | 36635 ft | 525 kts | 83° |
| 2026-05-05 12:46 | 62.44429 | 26.82908 | 36631 ft | 525 kts | 83° |
| 2026-05-05 12:47 | 62.45446 | 26.98544 | 36634 ft | 525 kts | 83° |
| 2026-05-05 12:47 | 62.46446 | 27.14192 | 36619 ft | 525 kts | 83° |
| 2026-05-05 12:48 | 62.47427 | 27.29826 | 36619 ft | 525 kts | 83° |
| 2026-05-05 12:48 | 62.48389 | 27.45448 | 36590 ft | 525 kts | 84° |
| 2026-05-05 12:49 | 62.49335 | 27.61118 | 36628 ft | 524 kts | 84° |
| 2026-05-05 12:49 | 62.50263 | 27.76764 | 36614 ft | 524 kts | 84° |
| 2026-05-05 12:50 | 62.51172 | 27.92419 | 36633 ft | 524 kts | 84° |
| 2026-05-05 12:50 | 62.52064 | 28.08068 | 36620 ft | 524 kts | 84° |
| 2026-05-05 12:51 | 62.52938 | 28.23737 | 36615 ft | 524 kts | 84° |
| 2026-05-05 12:51 | 62.53794 | 28.39402 | 36601 ft | 524 kts | 85° |
| 2026-05-05 12:52 | 62.54633 | 28.55088 | 36614 ft | 523 kts | 85° |
| 2026-05-05 12:52 | 62.55452 | 28.70744 | 36606 ft | 523 kts | 85° |
| 2026-05-05 12:53 | 62.56256 | 28.86441 | 36606 ft | 523 kts | 85° |